Lookout, Wyoming
Current Conditions -  °F | °C
As of 12:53 AM on Monday 22 Dec 2014 (Local Time) from KLAR Reporting Station
Few Clouds Few Clouds  
Wind Chill: -13°   Ceiling: Unl
Heat Index: -5°   Visibility: 10mi
Dew Point: -7°   Wind: 17mph
Humidity: 88%   Direction: 340°NNW
Pressure: 29.69"   Gusts: NA
Location:  41.5395°N, 105.861°W
Report Text: KLAR 220753Z AUTO 34015KT 10SM FEW080 M05/M07 A2969 RMK AO2 SLP053 T10501067
Loading
Personal Weather Stations






























Interactive Weather Map New forecast layout! Learn more

10-Day Weather Forecast

Advertisements
Track Severe Weather on mobile